메인 페이지
METAR-TAF:

METAR-TAF

공항 :

Shell Mera, 에콰도르

위도: 01-30-19S, 경도: 078-03-46W, 고도: 1056m

현재 날씨관측

예보는 51분 전, 18:00시(UTC)에 발표되었습니다.
1kt
온도 22°C
습도 94%
기압 1018 hPa
시정 10km 이상
고도 1000ft 상공 구름 조금
고도 2300ft 상공 구름 많음
고도 10000ft 상공 흐림
시계 내 소나기

METAR: SESM 171800Z 01001KT 9999 VCSH FEW010 BKN023 OVC100 22/21 Q1018 RMK A3007

시각: 13:51 (18:51 UTC)


TAF: 누락

4,000개 이상의 공항 관측 자료 및 예보 (METAR 및 TAF 보고).

지도상에서 검색 가능한 기상관측소가 노란 점과 빨간 점으로 표시되어 있습니다.

기상관측소 명을 보려면 표시 위로 마우스를 이동하세요.

날씨 관측과 예보를 보려면 클릭하세요.

지도 변경 : 확대하려면 엑스 표시가 있는 녹색 버튼, 축소하려면 빼기 표시가 있는 녹색 버튼, 다음 페이지의 지도를 보려면 녹색 화살표를 클릭하세요.


METAR-TAF: